Terminal Aerodrome Forecast
Issued by NWS Charleston, WV

Current Version | Previous Version | Text Only | Print | Product List | Glossary Off
Versions: 1 2 3 4 5 6 7 8 9 10 11 12 13 14 15 16 17 18 19 20 21 22 23 24 25 26 27 28 29

000
FTUS41 KRLX 030216 AAA
TAFHTS
TAF AMD
KHTS 030216Z 0302/0324 VRB02KT 6SM BR SCT020 OVC050
     FM030500 00000KT 4SM BR VCSH OVC020
     FM030700 00000KT 2SM BR OVC012
     FM030900 00000KT 1SM BR SCT001 OVC008
     FM031200 00000KT 3SM BR OVC010
     FM031400 00000KT 6SM HZ OVC020
     FM031700 10004KT 4SM SHRA BR VCTS OVC015CB=

USA.gov is the U.S. government's official web portal to all federal, state and local government web resources and services.